Time;durP1;ratioP1;P1;durP2;ratioP2;P2;SDS_P1;SDS_P2;PMS_P1;PMS_P2;Temp;Humidity;BMP_temperature;BMP_pressure;BME280_temperature;BME280_humidity;BME280_pressure;Samples;Min_cycle;Max_cycle;Signal;HPM_P1;HPM_P2
2024/03/14 00:06:58;;;;;;;11.03;7.87;;;10.90;66.60;;;;;;20660938;28;20124;-49
2024/03/14 00:16:59;;;;;;;13.57;9.60;;;10.80;72.00;;;;;;20664651;28;20457;-48
2024/03/14 00:26:59;;;;;;;12.87;9.73;;;10.70;90.10;;;;;;20653458;28;20065;-48
2024/03/14 00:37:01;;;;;;;13.98;10.38;;;10.70;94.00;;;;;;20659921;28;20573;-48
2024/03/14 00:47:01;;;;;;;15.02;10.88;;;10.60;99.80;;;;;;20646782;28;20544;-48
2024/03/14 00:57:02;;;;;;;14.13;10.38;;;10.60;99.90;;;;;;20655196;28;20708;-49
2024/03/14 01:07:03;;;;;;;13.63;9.82;;;10.60;99.90;;;;;;20649595;28;20077;-47
2024/03/14 01:17:04;;;;;;;12.88;9.73;;;10.60;99.90;;;;;;20655087;28;20045;-48
2024/03/14 01:27:04;;;;;;;12.90;10.10;;;10.60;99.90;;;;;;20649878;28;20399;-48
2024/03/14 01:37:06;;;;;;;14.03;9.73;;;10.60;99.90;;;;;;20652278;28;20053;-47
2024/03/14 01:47:06;;;;;;;13.00;9.80;;;10.50;99.90;;;;;;20653787;28;20832;-48
2024/03/14 01:57:09;;;;;;;13.30;10.10;;;10.40;99.90;;;;;;20642233;28;20042;-48
2024/03/14 02:07:13;;;;;;;12.35;9.05;;;10.40;99.90;;;;;;20645918;28;20452;-48
2024/03/14 02:17:14;;;;;;;13.88;9.15;;;10.30;99.90;;;;;;20649057;28;20572;-48
2024/03/14 02:27:15;;;;;;;10.95;8.38;;;10.30;99.90;;;;;;20648623;28;20509;-48
2024/03/14 02:37:16;;;;;;;12.00;8.50;;;10.20;99.90;;;;;;20651307;28;20038;-48
2024/03/14 02:47:17;;;;;;;12.18;8.57;;;10.10;99.90;;;;;;20648515;28;20038;-48
2024/03/14 02:57:18;;;;;;;12.15;8.95;;;10.10;99.90;;;;;;20653197;28;20046;-47
2024/03/14 03:07:19;;;;;;;11.52;8.32;;;10.00;99.90;;;;;;20661939;28;20149;-50
2024/03/14 03:17:19;;;;;;;11.63;8.50;;;9.90;99.90;;;;;;20659508;28;20039;-48
2024/03/14 03:27:21;;;;;;;14.00;8.90;;;9.80;99.90;;;;;;20659206;28;20148;-48
2024/03/14 03:37:21;;;;;;;11.55;9.10;;;9.70;99.90;;;;;;20664796;28;20042;-48
2024/03/14 03:47:22;;;;;;;13.00;9.13;;;9.60;99.90;;;;;;20660447;28;20046;-48
2024/03/14 03:57:23;;;;;;;13.53;9.70;;;9.50;99.90;;;;;;20655974;28;20038;-47
2024/03/14 04:07:28;;;;;;;14.33;10.43;;;9.50;99.90;;;;;;20658043;28;20865;-47
2024/03/14 04:17:30;;;;;;;16.35;11.90;;;9.40;99.90;;;;;;20655869;28;20479;-47
2024/03/14 04:27:30;;;;;;;14.05;10.60;;;9.40;99.90;;;;;;20657613;28;20100;-48
2024/03/14 04:37:32;;;;;;;15.93;11.82;;;9.40;99.90;;;;;;20656187;28;20050;-48
2024/03/14 04:47:32;;;;;;;17.92;13.00;;;9.30;99.90;;;;;;20657950;28;20041;-47
2024/03/14 04:57:33;;;;;;;20.75;14.52;;;9.30;99.90;;;;;;20654910;28;20034;-48
2024/03/14 05:07:34;;;;;;;21.42;14.45;;;9.20;99.90;;;;;;20656291;28;20042;-48
2024/03/14 05:17:36;;;;;;;21.15;14.57;;;9.10;99.90;;;;;;20657532;28;20474;-49
2024/03/14 05:27:36;;;;;;;26.50;16.40;;;9.10;99.90;;;;;;20636496;28;20039;-48
2024/03/14 05:37:37;;;;;;;24.58;16.15;;;9.00;99.90;;;;;;20650106;28;20045;-48
2024/03/14 05:47:38;;;;;;;23.95;16.63;;;9.00;99.90;;;;;;20657297;28;20045;-47
2024/03/14 05:57:39;;;;;;;27.38;16.95;;;9.00;99.90;;;;;;20636158;28;20069;-48
2024/03/14 06:07:40;;;;;;;24.35;16.80;;;8.90;99.90;;;;;;20634082;28;21907;-48
2024/03/14 06:17:41;;;;;;;27.02;17.05;;;8.80;99.90;;;;;;20657088;28;20042;-48
2024/03/14 06:27:42;;;;;;;31.10;16.88;;;8.70;99.90;;;;;;20654585;28;20130;-48
2024/03/14 06:37:43;;;;;;;27.67;16.52;;;8.80;99.90;;;;;;20667505;28;20129;-48
2024/03/14 06:47:45;;;;;;;26.73;16.10;;;8.70;99.90;;;;;;20674184;28;20042;-48
2024/03/14 06:57:47;;;;;;;28.65;15.88;;;8.80;99.90;;;;;;20673197;28;20433;-48
2024/03/14 07:07:49;;;;;;;24.15;15.18;;;8.90;99.90;;;;;;20676342;28;20037;-48
2024/03/14 07:17:50;;;;;;;24.92;14.15;;;9.00;99.90;;;;;;20668374;28;20497;-47
2024/03/14 07:27:51;;;;;;;25.80;15.35;;;9.20;99.90;;;;;;20667866;28;20042;-48
2024/03/14 07:37:51;;;;;;;25.13;15.27;;;9.40;99.90;;;;;;20666674;28;20383;-48
2024/03/14 07:47:52;;;;;;;21.27;13.33;;;9.60;99.90;;;;;;20670352;28;20678;-48
2024/03/14 07:57:53;;;;;;;20.07;12.50;;;10.00;99.90;;;;;;20661953;28;20049;-48
2024/03/14 08:07:53;;;;;;;18.88;11.40;;;10.30;99.90;;;;;;20663231;28;20458;-47
2024/03/14 08:17:54;;;;;;;14.67;10.90;;;10.70;99.90;;;;;;20661710;28;20034;-48
2024/03/14 08:27:54;;;;;;;13.57;9.40;;;11.00;99.90;;;;;;20662473;28;20457;-47
2024/03/14 08:37:55;;;;;;;13.25;8.40;;;11.40;88.50;;;;;;20625187;28;20489;-48
2024/03/14 08:47:56;;;;;;;12.13;8.32;;;11.90;64.80;;;;;;20660127;28;20042;-48
2024/03/14 08:57:56;;;;;;;11.60;7.60;;;12.10;41.00;;;;;;20656340;28;20042;-48
2024/03/14 09:07:57;;;;;;;9.35;7.15;;;12.50;30.80;;;;;;20661554;28;20491;-48
2024/03/14 09:17:59;;;;;;;10.47;6.10;;;13.00;14.90;;;;;;20663876;28;20088;-48
2024/03/14 09:28:00;;;;;;;9.30;6.18;;;13.30;9.50;;;;;;20660039;28;20488;-48
2024/03/14 09:38:03;;;;;;;10.38;6.10;;;13.60;2.70;;;;;;20662703;28;20033;-48
2024/03/14 09:48:05;;;;;;;8.60;5.55;;;13.90;1.00;;;;;;20660676;28;20050;-48
2024/03/14 09:58:08;;;;;;;8.30;5.38;;;14.00;1.00;;;;;;20657633;28;20050;-48
2024/03/14 10:08:11;;;;;;;7.53;5.10;;;14.30;1.00;;;;;;20657368;28;20045;-48
2024/03/14 10:18:12;;;;;;;8.43;5.55;;;14.50;1.00;;;;;;20656062;28;20149;-48
2024/03/14 10:28:17;;;;;;;9.10;4.70;;;14.70;1.00;;;;;;20651841;28;20050;-48
2024/03/14 10:38:25;;;;;;;7.00;4.88;;;15.10;1.00;;;;;;20658388;28;20043;-48
2024/03/14 10:48:26;;;;;;;;;;;15.40;1.00;;;;;;20661301;28;20482;-48
2024/03/14 10:58:27;;;;;;;7.68;4.85;;;15.70;1.00;;;;;;20659390;28;19917;-48
2024/03/14 11:08:28;;;;;;;6.50;4.20;;;15.80;1.00;;;;;;20659903;28;20193;-48
2024/03/14 11:18:39;;;;;;;7.38;4.07;;;16.20;1.00;;;;;;20659714;28;20038;-48
2024/03/14 11:28:41;;;;;;;5.93;4.20;;;17.10;1.00;;;;;;20673563;28;20506;-48
2024/03/14 11:38:44;;;;;;;7.30;4.53;;;17.60;1.00;;;;;;20673294;28;20034;-48
2024/03/14 11:48:45;;;;;;;5.40;4.07;;;17.90;1.00;;;;;;20667934;28;20045;-49
2024/03/14 11:58:45;;;;;;;6.43;3.90;;;18.40;1.00;;;;;;20671586;28;20045;-49
2024/03/14 12:08:47;;;;;;;5.57;4.05;;;19.00;1.00;;;;;;20672600;28;20106;-49
2024/03/14 12:18:49;;;;;;;4.88;3.90;;;18.80;1.00;;;;;;20666683;28;20414;-49
2024/03/14 12:28:50;;;;;;;4.05;3.08;;;19.30;1.00;;;;;;20663416;28;20104;-49
2024/03/14 12:38:51;;;;;;;5.25;2.92;;;19.40;1.00;;;;;;20663558;28;20065;-49
2024/03/14 12:48:52;;;;;;;4.65;2.92;;;19.40;1.00;;;;;;20663297;28;20036;-49
2024/03/14 12:58:54;;;;;;;4.57;2.42;;;19.40;1.00;;;;;;20655865;28;20037;-49
2024/03/14 13:09:16;;;;;;;3.42;2.28;;;19.70;1.00;;;;;;20658905;28;20118;-49
2024/03/14 13:19:17;;;;;;;4.43;2.45;;;20.50;1.00;;;;;;20658113;28;20038;-49
2024/03/14 13:29:19;;;;;;;4.45;2.53;;;20.60;1.00;;;;;;20656879;28;20437;-49
2024/03/14 13:39:23;;;;;;;5.47;2.35;;;20.80;1.00;;;;;;20657222;28;20141;-49
2024/03/14 13:49:24;;;;;;;3.25;1.90;;;21.10;1.00;;;;;;20654132;28;20094;-49
2024/03/14 13:59:25;;;;;;;3.30;2.00;;;21.50;1.00;;;;;;20652986;28;20036;-50
2024/03/14 14:09:27;;;;;;;2.77;1.73;;;21.40;1.00;;;;;;20656621;28;20461;-50
2024/03/14 14:19:28;;;;;;;4.28;2.20;;;21.80;1.00;;;;;;20658180;28;20418;-49
2024/03/14 14:29:29;;;;;;;4.90;1.90;;;21.00;1.00;;;;;;20653737;28;20133;-48
2024/03/14 14:39:30;;;;;;;3.05;1.67;;;20.20;1.00;;;;;;20657243;28;20483;-48
2024/03/14 14:49:31;;;;;;;2.95;1.30;;;19.30;1.00;;;;;;20655855;28;20050;-48
2024/03/14 14:59:37;;;;;;;3.60;1.90;;;18.80;1.00;;;;;;20667426;28;20045;-49
2024/03/14 15:09:37;;;;;;;4.18;2.50;;;18.70;1.00;;;;;;20670602;28;20054;-48
2024/03/14 15:19:40;;;;;;;10.07;4.90;;;18.50;1.00;;;;;;20668703;28;20068;-49
2024/03/14 15:29:41;;;;;;;6.45;3.35;;;18.30;1.00;;;;;;20668688;28;20457;-49
2024/03/14 15:39:44;;;;;;;5.38;2.78;;;18.20;1.00;;;;;;20670670;28;20037;-49
2024/03/14 15:49:45;;;;;;;5.35;2.50;;;18.10;1.00;;;;;;20667460;28;20201;-49
2024/03/14 15:59:47;;;;;;;4.80;2.10;;;17.90;1.00;;;;;;20663801;28;20490;-49
2024/03/14 16:09:48;;;;;;;5.47;2.08;;;17.60;1.00;;;;;;20664049;28;20475;-49
2024/03/14 16:19:49;;;;;;;4.50;2.50;;;17.40;1.00;;;;;;20664300;28;20093;-48
2024/03/14 16:29:50;;;;;;;4.55;2.33;;;17.20;1.00;;;;;;20666752;28;20037;-49
2024/03/14 16:39:51;;;;;;;7.47;2.58;;;17.20;1.00;;;;;;20659123;28;20045;-49
2024/03/14 16:49:52;;;;;;;6.68;2.38;;;17.10;1.00;;;;;;20664150;28;20038;-49
2024/03/14 16:59:55;;;;;;;6.23;3.23;;;17.00;1.00;;;;;;20661162;28;20029;-49
2024/03/14 17:09:55;;;;;;;5.40;3.10;;;16.90;1.00;;;;;;20663917;28;20049;-48
2024/03/14 17:19:56;;;;;;;5.90;2.90;;;16.90;1.00;;;;;;20661376;28;20050;-48
2024/03/14 17:29:57;;;;;;;8.45;3.05;;;16.80;1.00;;;;;;20645767;28;20601;-48
2024/03/14 17:40:10;;;;;;;6.32;2.78;;;16.60;1.00;;;;;;20656852;28;20101;-48
2024/03/14 17:50:11;;;;;;;10.60;3.10;;;16.50;1.00;;;;;;20660494;28;20050;-48
2024/03/14 18:00:15;;;;;;;5.85;3.40;;;16.40;1.00;;;;;;20658647;28;20033;-48
2024/03/14 18:10:15;;;;;;;6.10;3.50;;;16.10;1.00;;;;;;20655525;28;20045;-48
2024/03/14 18:20:17;;;;;;;3.85;2.60;;;16.20;1.00;;;;;;20651466;28;20049;-48
2024/03/14 18:30:18;;;;;;;6.65;2.72;;;16.00;1.00;;;;;;20668011;28;20437;-48
2024/03/14 18:40:24;;;;;;;5.70;2.80;;;15.90;1.00;;;;;;20680030;28;20053;-48
2024/03/14 18:50:25;;;;;;;5.32;2.55;;;15.80;1.00;;;;;;20681237;28;20038;-48
2024/03/14 19:00:28;;;;;;;4.10;2.85;;;15.80;1.00;;;;;;20680786;28;20069;-48
2024/03/14 19:10:29;;;;;;;5.63;3.10;;;15.70;1.00;;;;;;20683782;28;20175;-48
2024/03/14 19:20:29;;;;;;;4.50;2.70;;;15.60;1.00;;;;;;20685292;28;20054;-48
2024/03/14 19:30:32;;;;;;;4.90;3.20;;;15.50;1.00;;;;;;20680264;28;20470;-48
2024/03/14 19:40:37;;;;;;;5.93;3.20;;;15.50;1.00;;;;;;20682987;28;22095;-49
2024/03/14 19:50:39;;;;;;;6.05;3.30;;;15.40;1.00;;;;;;20670365;28;20038;-49
2024/03/14 20:00:41;;;;;;;4.68;2.85;;;15.30;1.00;;;;;;20665832;28;20041;-48
2024/03/14 20:10:41;;;;;;;6.53;3.00;;;15.10;1.00;;;;;;20658658;28;20474;-48
2024/03/14 20:20:42;;;;;;;6.85;3.42;;;15.10;1.00;;;;;;20663098;28;20527;-48
2024/03/14 20:30:43;;;;;;;4.33;2.87;;;15.00;1.00;;;;;;20669168;28;20515;-48
2024/03/14 20:40:43;;;;;;;5.80;2.73;;;15.00;1.00;;;;;;20666938;28;20532;-48
2024/03/14 20:50:44;;;;;;;8.13;3.20;;;14.80;1.00;;;;;;20658159;28;20808;-48
2024/03/14 21:00:45;;;;;;;7.87;3.10;;;14.80;1.00;;;;;;20664912;28;20449;-48
2024/03/14 21:10:45;;;;;;;6.37;3.50;;;14.60;1.00;;;;;;20662736;28;20035;-48
2024/03/14 21:20:47;;;;;;;4.83;2.97;;;14.60;1.00;;;;;;20655800;28;20602;-48
2024/03/14 21:30:48;;;;;;;7.75;3.90;;;14.40;1.00;;;;;;20657540;28;20524;-48
2024/03/14 21:40:49;;;;;;;7.20;3.70;;;14.40;1.00;;;;;;20651405;28;20504;-48
2024/03/14 21:50:50;;;;;;;5.82;3.80;;;14.20;1.00;;;;;;20655325;28;20046;-48
2024/03/14 22:00:52;;;;;;;7.88;4.00;;;14.10;1.00;;;;;;20651786;28;20553;-48
2024/03/14 22:10:53;;;;;;;7.95;4.75;;;14.10;1.00;;;;;;20646303;28;20398;-49
2024/03/14 22:20:54;;;;;;;8.30;5.57;;;14.00;1.00;;;;;;20657573;28;20061;-49
2024/03/14 22:30:55;;;;;;;8.60;5.20;;;14.00;1.00;;;;;;20659598;28;20485;-48
2024/03/14 22:40:56;;;;;;;9.30;5.88;;;13.80;1.00;;;;;;20657687;28;20081;-48
2024/03/14 22:50:57;;;;;;;10.15;5.90;;;13.70;1.00;;;;;;20657168;28;20065;-48
2024/03/14 23:01:01;;;;;;;8.73;5.93;;;13.60;1.00;;;;;;20647662;28;20494;-48
2024/03/14 23:11:03;;;;;;;9.05;4.97;;;13.50;1.00;;;;;;20650846;28;20471;-48
2024/03/14 23:21:05;;;;;;;8.60;4.97;;;13.30;1.00;;;;;;20660582;28;20080;-48
2024/03/14 23:31:06;;;;;;;7.68;5.03;;;13.10;1.00;;;;;;20663176;28;20707;-48
2024/03/14 23:41:09;;;;;;;8.30;4.60;;;13.10;1.00;;;;;;20665447;28;20638;-48
2024/03/14 23:51:09;;;;;;;11.45;5.53;;;13.10;1.00;;;;;;20668390;28;20492;-48
